sensor_id;sensor_type;location;lat;lon;timestamp;temperature;humidity
14079;DHT22;7115;50.150;8.568;2022-10-24T00:00:11;16.40;99.90
14079;DHT22;7115;50.150;8.568;2022-10-24T00:02:41;16.30;99.90
14079;DHT22;7115;50.150;8.568;2022-10-24T00:05:11;16.30;99.90
14079;DHT22;7115;50.150;8.568;2022-10-24T00:07:38;16.30;99.90
14079;DHT22;7115;50.150;8.568;2022-10-24T00:10:05;16.20;99.90
14079;DHT22;7115;50.150;8.568;2022-10-24T00:12:32;16.20;99.90
14079;DHT22;7115;50.150;8.568;2022-10-24T00:15:00;16.20;99.90
14079;DHT22;7115;50.150;8.568;2022-10-24T00:17:27;16.10;99.90
14079;DHT22;7115;50.150;8.568;2022-10-24T00:19:55;16.10;99.90
14079;DHT22;7115;50.150;8.568;2022-10-24T00:22:25;16.10;99.90
14079;DHT22;7115;50.150;8.568;2022-10-24T00:24:52;16.00;99.90
14079;DHT22;7115;50.150;8.568;2022-10-24T00:27:19;16.00;99.90
14079;DHT22;7115;50.150;8.568;2022-10-24T00:29:45;15.90;99.90
14079;DHT22;7115;50.150;8.568;2022-10-24T00:32:12;15.90;99.90
14079;DHT22;7115;50.150;8.568;2022-10-24T00:34:40;15.80;99.90
14079;DHT22;7115;50.150;8.568;2022-10-24T00:37:09;15.80;99.90
14079;DHT22;7115;50.150;8.568;2022-10-24T00:39:35;15.80;99.90
14079;DHT22;7115;50.150;8.568;2022-10-24T00:42:02;15.70;99.90
14079;DHT22;7115;50.150;8.568;2022-10-24T00:44:31;15.70;99.90
14079;DHT22;7115;50.150;8.568;2022-10-24T00:47:01;15.60;99.90
14079;DHT22;7115;50.150;8.568;2022-10-24T00:49:32;15.50;99.90
14079;DHT22;7115;50.150;8.568;2022-10-24T00:52:05;15.50;99.90
14079;DHT22;7115;50.150;8.568;2022-10-24T00:54:34;15.40;99.90
14079;DHT22;7115;50.150;8.568;2022-10-24T00:57:08;15.40;99.90
14079;DHT22;7115;50.150;8.568;2022-10-24T00:59:37;15.30;99.90
14079;DHT22;7115;50.150;8.568;2022-10-24T01:02:07;15.20;99.90
14079;DHT22;7115;50.150;8.568;2022-10-24T01:04:34;15.20;99.90
14079;DHT22;7115;50.150;8.568;2022-10-24T01:07:18;15.10;99.90
14079;DHT22;7115;50.150;8.568;2022-10-24T01:10:01;15.10;99.90
14079;DHT22;7115;50.150;8.568;2022-10-24T01:12:34;15.00;99.90
14079;DHT22;7115;50.150;8.568;2022-10-24T01:15:12;15.00;99.90
14079;DHT22;7115;50.150;8.568;2022-10-24T01:17:44;15.00;99.90
14079;DHT22;7115;50.150;8.568;2022-10-24T01:20:39;15.00;99.90
14079;DHT22;7115;50.150;8.568;2022-10-24T01:23:44;14.90;99.90
14079;DHT22;7115;50.150;8.568;2022-10-24T01:26:47;14.90;99.90
14079;DHT22;7115;50.150;8.568;2022-10-24T01:29:28;14.90;99.90
14079;DHT22;7115;50.150;8.568;2022-10-24T01:31:59;14.90;99.90
14079;DHT22;7115;50.150;8.568;2022-10-24T01:34:32;14.90;99.90
14079;DHT22;7115;50.150;8.568;2022-10-24T01:37:03;14.80;99.90
14079;DHT22;7115;50.150;8.568;2022-10-24T01:39:35;14.80;99.90
14079;DHT22;7115;50.150;8.568;2022-10-24T01:42:05;14.80;99.90
14079;DHT22;7115;50.150;8.568;2022-10-24T01:44:37;14.70;99.90
14079;DHT22;7115;50.150;8.568;2022-10-24T01:47:07;14.70;99.90
14079;DHT22;7115;50.150;8.568;2022-10-24T01:49:37;14.80;99.90
14079;DHT22;7115;50.150;8.568;2022-10-24T01:52:09;14.70;99.90
14079;DHT22;7115;50.150;8.568;2022-10-24T01:54:38;14.70;99.90
14079;DHT22;7115;50.150;8.568;2022-10-24T01:57:06;14.70;99.90
14079;DHT22;7115;50.150;8.568;2022-10-24T01:59:42;14.70;99.90
14079;DHT22;7115;50.150;8.568;2022-10-24T02:02:14;14.60;99.90
14079;DHT22;7115;50.150;8.568;2022-10-24T02:04:47;14.60;99.90
14079;DHT22;7115;50.150;8.568;2022-10-24T02:07:17;14.60;99.90
14079;DHT22;7115;50.150;8.568;2022-10-24T02:09:46;14.60;99.90
14079;DHT22;7115;50.150;8.568;2022-10-24T02:12:16;14.60;99.90
14079;DHT22;7115;50.150;8.568;2022-10-24T02:14:48;14.60;99.90
14079;DHT22;7115;50.150;8.568;2022-10-24T02:17:16;14.60;99.90
14079;DHT22;7115;50.150;8.568;2022-10-24T02:19:44;14.50;99.90
14079;DHT22;7115;50.150;8.568;2022-10-24T02:22:18;14.50;99.90
14079;DHT22;7115;50.150;8.568;2022-10-24T02:24:50;14.50;99.90
14079;DHT22;7115;50.150;8.568;2022-10-24T02:27:21;14.50;99.90
14079;DHT22;7115;50.150;8.568;2022-10-24T02:29:54;14.50;99.90
14079;DHT22;7115;50.150;8.568;2022-10-24T02:32:27;14.50;99.90
14079;DHT22;7115;50.150;8.568;2022-10-24T02:34:55;14.50;99.90
14079;DHT22;7115;50.150;8.568;2022-10-24T02:37:24;14.40;99.90
14079;DHT22;7115;50.150;8.568;2022-10-24T02:39:54;14.40;99.90
14079;DHT22;7115;50.150;8.568;2022-10-24T02:42:23;14.40;99.90
14079;DHT22;7115;50.150;8.568;2022-10-24T02:44:52;14.50;99.90
14079;DHT22;7115;50.150;8.568;2022-10-24T02:47:20;14.50;99.90
14079;DHT22;7115;50.150;8.568;2022-10-24T02:49:48;14.50;99.90
14079;DHT22;7115;50.150;8.568;2022-10-24T02:52:15;14.50;99.90
14079;DHT22;7115;50.150;8.568;2022-10-24T02:54:43;14.50;99.90
14079;DHT22;7115;50.150;8.568;2022-10-24T02:57:10;14.50;99.90
14079;DHT22;7115;50.150;8.568;2022-10-24T02:59:39;14.50;99.90
14079;DHT22;7115;50.150;8.568;2022-10-24T03:02:07;14.40;99.90
14079;DHT22;7115;50.150;8.568;2022-10-24T03:04:34;14.40;99.90
14079;DHT22;7115;50.150;8.568;2022-10-24T03:07:01;14.40;99.90
14079;DHT22;7115;50.150;8.568;2022-10-24T03:09:27;14.40;99.90
14079;DHT22;7115;50.150;8.568;2022-10-24T03:11:54;14.50;99.90
14079;DHT22;7115;50.150;8.568;2022-10-24T03:14:21;14.50;99.90
14079;DHT22;7115;50.150;8.568;2022-10-24T03:16:48;14.50;99.90
14079;DHT22;7115;50.150;8.568;2022-10-24T03:19:16;14.50;99.90
14079;DHT22;7115;50.150;8.568;2022-10-24T03:21:43;14.50;99.90
14079;DHT22;7115;50.150;8.568;2022-10-24T03:24:10;14.60;99.90
14079;DHT22;7115;50.150;8.568;2022-10-24T03:26:36;14.60;99.90
14079;DHT22;7115;50.150;8.568;2022-10-24T03:29:03;14.60;99.90
14079;DHT22;7115;50.150;8.568;2022-10-24T03:31:31;14.60;99.90
14079;DHT22;7115;50.150;8.568;2022-10-24T03:33:58;14.60;99.90
14079;DHT22;7115;50.150;8.568;2022-10-24T03:36:26;14.60;99.90
14079;DHT22;7115;50.150;8.568;2022-10-24T03:38:53;14.60;99.90
14079;DHT22;7115;50.150;8.568;2022-10-24T03:41:20;14.60;99.90
14079;DHT22;7115;50.150;8.568;2022-10-24T03:43:47;14.60;99.90
14079;DHT22;7115;50.150;8.568;2022-10-24T03:46:13;14.60;99.90
14079;DHT22;7115;50.150;8.568;2022-10-24T03:48:40;14.60;99.90
14079;DHT22;7115;50.150;8.568;2022-10-24T03:51:07;14.50;99.90
14079;DHT22;7115;50.150;8.568;2022-10-24T03:53:35;14.60;99.90
14079;DHT22;7115;50.150;8.568;2022-10-24T03:56:02;14.50;99.90
14079;DHT22;7115;50.150;8.568;2022-10-24T03:58:29;14.50;99.90
14079;DHT22;7115;50.150;8.568;2022-10-24T04:00:56;14.60;99.90
14079;DHT22;7115;50.150;8.568;2022-10-24T04:03:25;14.50;99.90
14079;DHT22;7115;50.150;8.568;2022-10-24T04:05:52;14.60;99.90
14079;DHT22;7115;50.150;8.568;2022-10-24T04:08:19;14.60;99.90
14079;DHT22;7115;50.150;8.568;2022-10-24T04:10:48;14.60;99.90
14079;DHT22;7115;50.150;8.568;2022-10-24T04:13:15;14.60;99.90
14079;DHT22;7115;50.150;8.568;2022-10-24T04:15:42;14.60;99.90
14079;DHT22;7115;50.150;8.568;2022-10-24T04:18:09;14.60;99.90
14079;DHT22;7115;50.150;8.568;2022-10-24T04:20:36;14.70;99.90
14079;DHT22;7115;50.150;8.568;2022-10-24T04:23:03;14.70;99.90
14079;DHT22;7115;50.150;8.568;2022-10-24T04:25:30;14.70;99.90
14079;DHT22;7115;50.150;8.568;2022-10-24T04:27:58;14.70;99.90
14079;DHT22;7115;50.150;8.568;2022-10-24T04:30:25;14.70;99.90
14079;DHT22;7115;50.150;8.568;2022-10-24T04:32:52;14.80;99.90
14079;DHT22;7115;50.150;8.568;2022-10-24T04:35:19;14.80;99.90
14079;DHT22;7115;50.150;8.568;2022-10-24T04:37:45;14.80;99.90
14079;DHT22;7115;50.150;8.568;2022-10-24T04:40:12;14.80;99.90
14079;DHT22;7115;50.150;8.568;2022-10-24T04:42:39;14.80;99.90
14079;DHT22;7115;50.150;8.568;2022-10-24T04:45:09;14.80;99.90
14079;DHT22;7115;50.150;8.568;2022-10-24T04:47:36;14.80;99.90
14079;DHT22;7115;50.150;8.568;2022-10-24T04:50:03;14.80;99.90
14079;DHT22;7115;50.150;8.568;2022-10-24T04:52:30;14.80;99.90
14079;DHT22;7115;50.150;8.568;2022-10-24T04:54:57;14.80;99.90
14079;DHT22;7115;50.150;8.568;2022-10-24T04:57:24;14.90;99.90
14079;DHT22;7115;50.150;8.568;2022-10-24T04:59:51;14.90;99.90
14079;DHT22;7115;50.150;8.568;2022-10-24T05:02:19;15.00;99.90
14079;DHT22;7115;50.150;8.568;2022-10-24T05:04:46;14.90;99.90
14079;DHT22;7115;50.150;8.568;2022-10-24T05:07:13;14.90;99.90
14079;DHT22;7115;50.150;8.568;2022-10-24T05:09:40;14.90;99.90
14079;DHT22;7115;50.150;8.568;2022-10-24T05:12:07;14.90;99.90
14079;DHT22;7115;50.150;8.568;2022-10-24T05:14:33;15.00;99.90
14079;DHT22;7115;50.150;8.568;2022-10-24T05:17:00;14.90;99.90
14079;DHT22;7115;50.150;8.568;2022-10-24T05:19:29;15.00;99.90
14079;DHT22;7115;50.150;8.568;2022-10-24T05:21:55;14.90;99.90
14079;DHT22;7115;50.150;8.568;2022-10-24T05:24:23;15.00;99.90
14079;DHT22;7115;50.150;8.568;2022-10-24T05:26:50;14.90;99.90
14079;DHT22;7115;50.150;8.568;2022-10-24T05:29:17;15.00;99.90
14079;DHT22;7115;50.150;8.568;2022-10-24T05:31:44;14.90;99.90
14079;DHT22;7115;50.150;8.568;2022-10-24T05:34:10;14.90;99.90
14079;DHT22;7115;50.150;8.568;2022-10-24T05:36:39;14.90;99.90
14079;DHT22;7115;50.150;8.568;2022-10-24T05:39:06;14.90;99.90
14079;DHT22;7115;50.150;8.568;2022-10-24T05:41:32;14.80;99.90
14079;DHT22;7115;50.150;8.568;2022-10-24T05:43:59;14.80;99.90
14079;DHT22;7115;50.150;8.568;2022-10-24T05:46:26;14.80;99.90
14079;DHT22;7115;50.150;8.568;2022-10-24T05:48:53;14.70;99.90
14079;DHT22;7115;50.150;8.568;2022-10-24T05:51:20;14.80;99.90
14079;DHT22;7115;50.150;8.568;2022-10-24T05:53:49;14.80;99.90
14079;DHT22;7115;50.150;8.568;2022-10-24T05:56:16;14.80;99.90
14079;DHT22;7115;50.150;8.568;2022-10-24T05:58:43;14.80;99.90
14079;DHT22;7115;50.150;8.568;2022-10-24T06:01:10;14.80;99.90
14079;DHT22;7115;50.150;8.568;2022-10-24T06:03:37;14.80;99.90
14079;DHT22;7115;50.150;8.568;2022-10-24T06:06:06;14.80;99.90
14079;DHT22;7115;50.150;8.568;2022-10-24T06:08:33;14.80;99.90
14079;DHT22;7115;50.150;8.568;2022-10-24T06:11:02;14.80;99.90
14079;DHT22;7115;50.150;8.568;2022-10-24T06:13:30;14.90;99.90
14079;DHT22;7115;50.150;8.568;2022-10-24T06:16:02;14.90;99.90
14079;DHT22;7115;50.150;8.568;2022-10-24T06:18:28;15.00;99.90
14079;DHT22;7115;50.150;8.568;2022-10-24T06:20:58;14.90;99.90
14079;DHT22;7115;50.150;8.568;2022-10-24T06:23:25;15.00;99.90
14079;DHT22;7115;50.150;8.568;2022-10-24T06:25:52;15.00;99.90
14079;DHT22;7115;50.150;8.568;2022-10-24T06:28:20;15.00;99.90
14079;DHT22;7115;50.150;8.568;2022-10-24T06:30:49;15.00;99.90
14079;DHT22;7115;50.150;8.568;2022-10-24T06:33:16;15.00;99.90
14079;DHT22;7115;50.150;8.568;2022-10-24T06:35:45;15.00;99.90
14079;DHT22;7115;50.150;8.568;2022-10-24T06:38:12;15.00;99.90
14079;DHT22;7115;50.150;8.568;2022-10-24T06:40:39;15.00;99.90
14079;DHT22;7115;50.150;8.568;2022-10-24T06:43:08;15.00;99.90
14079;DHT22;7115;50.150;8.568;2022-10-24T06:45:38;15.10;99.90
14079;DHT22;7115;50.150;8.568;2022-10-24T06:48:05;15.10;99.90
14079;DHT22;7115;50.150;8.568;2022-10-24T06:50:32;15.20;99.90
14079;DHT22;7115;50.150;8.568;2022-10-24T06:52:59;15.20;99.90
14079;DHT22;7115;50.150;8.568;2022-10-24T06:55:25;15.20;99.90
14079;DHT22;7115;50.150;8.568;2022-10-24T06:57:53;15.30;99.90
14079;DHT22;7115;50.150;8.568;2022-10-24T07:00:20;15.30;99.90
14079;DHT22;7115;50.150;8.568;2022-10-24T07:02:48;15.30;99.90
14079;DHT22;7115;50.150;8.568;2022-10-24T07:05:15;15.30;99.90
14079;DHT22;7115;50.150;8.568;2022-10-24T07:07:42;15.40;99.90
14079;DHT22;7115;50.150;8.568;2022-10-24T07:10:12;15.40;99.90
14079;DHT22;7115;50.150;8.568;2022-10-24T07:12:39;15.50;99.90
14079;DHT22;7115;50.150;8.568;2022-10-24T07:15:07;15.50;99.90
14079;DHT22;7115;50.150;8.568;2022-10-24T07:17:38;15.50;99.90
14079;DHT22;7115;50.150;8.568;2022-10-24T07:20:07;15.60;99.90
14079;DHT22;7115;50.150;8.568;2022-10-24T07:22:35;15.60;99.90
14079;DHT22;7115;50.150;8.568;2022-10-24T07:25:05;15.60;99.90
14079;DHT22;7115;50.150;8.568;2022-10-24T07:27:33;15.60;99.90
14079;DHT22;7115;50.150;8.568;2022-10-24T07:30:00;15.60;99.90
14079;DHT22;7115;50.150;8.568;2022-10-24T07:32:31;15.60;99.90
14079;DHT22;7115;50.150;8.568;2022-10-24T07:34:58;15.60;99.90
14079;DHT22;7115;50.150;8.568;2022-10-24T07:37:28;15.60;99.90
14079;DHT22;7115;50.150;8.568;2022-10-24T07:39:55;15.60;99.90
14079;DHT22;7115;50.150;8.568;2022-10-24T07:42:22;15.60;99.90
14079;DHT22;7115;50.150;8.568;2022-10-24T07:44:51;15.60;99.90
14079;DHT22;7115;50.150;8.568;2022-10-24T07:47:18;15.60;99.90
14079;DHT22;7115;50.150;8.568;2022-10-24T07:49:45;15.60;99.90
14079;DHT22;7115;50.150;8.568;2022-10-24T07:52:12;15.60;99.90
14079;DHT22;7115;50.150;8.568;2022-10-24T07:54:41;15.60;99.90
14079;DHT22;7115;50.150;8.568;2022-10-24T07:57:08;15.60;99.90
14079;DHT22;7115;50.150;8.568;2022-10-24T07:59:36;15.70;99.90
14079;DHT22;7115;50.150;8.568;2022-10-24T08:02:09;15.70;99.90
14079;DHT22;7115;50.150;8.568;2022-10-24T08:04:36;15.70;99.90
14079;DHT22;7115;50.150;8.568;2022-10-24T08:07:03;15.80;99.90
14079;DHT22;7115;50.150;8.568;2022-10-24T08:09:30;15.80;99.90
14079;DHT22;7115;50.150;8.568;2022-10-24T08:11:58;15.90;99.90
14079;DHT22;7115;50.150;8.568;2022-10-24T08:14:25;16.00;99.90
14079;DHT22;7115;50.150;8.568;2022-10-24T08:16:52;16.10;99.90
14079;DHT22;7115;50.150;8.568;2022-10-24T08:19:19;16.10;99.90
14079;DHT22;7115;50.150;8.568;2022-10-24T08:21:46;16.20;99.90
14079;DHT22;7115;50.150;8.568;2022-10-24T08:24:15;16.30;99.90
14079;DHT22;7115;50.150;8.568;2022-10-24T08:26:42;16.30;99.90
14079;DHT22;7115;50.150;8.568;2022-10-24T08:29:11;16.40;99.90
14079;DHT22;7115;50.150;8.568;2022-10-24T08:31:40;16.50;99.90
14079;DHT22;7115;50.150;8.568;2022-10-24T08:34:08;16.50;99.90
14079;DHT22;7115;50.150;8.568;2022-10-24T08:36:35;16.60;99.90
14079;DHT22;7115;50.150;8.568;2022-10-24T08:39:03;16.70;99.90
14079;DHT22;7115;50.150;8.568;2022-10-24T08:41:34;16.80;99.90
14079;DHT22;7115;50.150;8.568;2022-10-24T08:44:05;16.90;99.90
14079;DHT22;7115;50.150;8.568;2022-10-24T08:46:46;17.10;99.90
14079;DHT22;7115;50.150;8.568;2022-10-24T08:49:23;17.30;99.90
14079;DHT22;7115;50.150;8.568;2022-10-24T08:51:53;17.60;99.90
14079;DHT22;7115;50.150;8.568;2022-10-24T08:54:26;17.90;99.90
14079;DHT22;7115;50.150;8.568;2022-10-24T08:56:55;18.10;99.90
14079;DHT22;7115;50.150;8.568;2022-10-24T08:59:26;18.40;99.90
14079;DHT22;7115;50.150;8.568;2022-10-24T09:01:56;18.50;99.90
14079;DHT22;7115;50.150;8.568;2022-10-24T09:04:35;18.70;99.90
14079;DHT22;7115;50.150;8.568;2022-10-24T09:07:05;18.80;99.90
14079;DHT22;7115;50.150;8.568;2022-10-24T09:09:36;18.90;99.90
14079;DHT22;7115;50.150;8.568;2022-10-24T09:12:09;19.00;99.90
14079;DHT22;7115;50.150;8.568;2022-10-24T09:14:38;19.10;99.90
14079;DHT22;7115;50.150;8.568;2022-10-24T09:17:16;19.40;99.90
14079;DHT22;7115;50.150;8.568;2022-10-24T09:19:49;19.30;99.90
14079;DHT22;7115;50.150;8.568;2022-10-24T09:22:17;19.30;99.90
14079;DHT22;7115;50.150;8.568;2022-10-24T09:24:47;19.40;99.90
14079;DHT22;7115;50.150;8.568;2022-10-24T09:27:19;19.50;99.90
14079;DHT22;7115;50.150;8.568;2022-10-24T09:29:52;19.70;99.90
14079;DHT22;7115;50.150;8.568;2022-10-24T09:32:23;19.80;99.90
14079;DHT22;7115;50.150;8.568;2022-10-24T09:34:52;20.20;99.90
14079;DHT22;7115;50.150;8.568;2022-10-24T09:37:36;20.90;99.90
14079;DHT22;7115;50.150;8.568;2022-10-24T09:40:17;22.00;99.90
14079;DHT22;7115;50.150;8.568;2022-10-24T09:42:49;22.90;99.90
14079;DHT22;7115;50.150;8.568;2022-10-24T09:45:28;23.50;99.90
14079;DHT22;7115;50.150;8.568;2022-10-24T09:47:58;23.70;99.90
14079;DHT22;7115;50.150;8.568;2022-10-24T09:50:26;23.70;99.90
14079;DHT22;7115;50.150;8.568;2022-10-24T09:52:56;23.60;99.90
14079;DHT22;7115;50.150;8.568;2022-10-24T09:55:25;23.30;99.90
14079;DHT22;7115;50.150;8.568;2022-10-24T09:57:55;22.90;99.90
14079;DHT22;7115;50.150;8.568;2022-10-24T10:00:25;22.40;99.90
14079;DHT22;7115;50.150;8.568;2022-10-24T10:02:59;22.00;99.90
14079;DHT22;7115;50.150;8.568;2022-10-24T10:05:29;21.60;99.90
14079;DHT22;7115;50.150;8.568;2022-10-24T10:08:09;21.40;99.90
14079;DHT22;7115;50.150;8.568;2022-10-24T10:10:37;21.20;99.90
14079;DHT22;7115;50.150;8.568;2022-10-24T10:13:07;21.00;99.90
14079;DHT22;7115;50.150;8.568;2022-10-24T10:15:45;20.80;99.90
14079;DHT22;7115;50.150;8.568;2022-10-24T10:18:23;20.70;99.90
14079;DHT22;7115;50.150;8.568;2022-10-24T10:21:00;20.60;99.90
14079;DHT22;7115;50.150;8.568;2022-10-24T10:23:30;20.60;99.90
14079;DHT22;7115;50.150;8.568;2022-10-24T10:26:04;20.70;99.90
14079;DHT22;7115;50.150;8.568;2022-10-24T10:28:33;20.60;99.90
14079;DHT22;7115;50.150;8.568;2022-10-24T10:31:01;20.80;99.90
14079;DHT22;7115;50.150;8.568;2022-10-24T10:33:38;21.20;99.90
14079;DHT22;7115;50.150;8.568;2022-10-24T10:36:12;21.70;99.90
14079;DHT22;7115;50.150;8.568;2022-10-24T10:38:45;22.00;99.90
14079;DHT22;7115;50.150;8.568;2022-10-24T10:44:20;23.00;99.90
14079;DHT22;7115;50.150;8.568;2022-10-24T10:46:55;24.10;99.90
14079;DHT22;7115;50.150;8.568;2022-10-24T10:49:31;25.10;99.90
14079;DHT22;7115;50.150;8.568;2022-10-24T10:52:04;25.60;99.90
14079;DHT22;7115;50.150;8.568;2022-10-24T10:57:31;25.60;99.90
14079;DHT22;7115;50.150;8.568;2022-10-24T11:00:07;25.10;99.90
14079;DHT22;7115;50.150;8.568;2022-10-24T11:02:49;24.80;99.90
14079;DHT22;7115;50.150;8.568;2022-10-24T11:05:39;24.60;99.90
14079;DHT22;7115;50.150;8.568;2022-10-24T11:11:02;24.20;99.90
14079;DHT22;7115;50.150;8.568;2022-10-24T11:13:33;23.80;99.90
14079;DHT22;7115;50.150;8.568;2022-10-24T11:16:06;23.40;99.90
14079;DHT22;7115;50.150;8.568;2022-10-24T11:18:37;23.00;99.90
14079;DHT22;7115;50.150;8.568;2022-10-24T11:21:08;22.70;99.90
14079;DHT22;7115;50.150;8.568;2022-10-24T11:23:39;22.50;99.90
14079;DHT22;7115;50.150;8.568;2022-10-24T11:26:10;22.30;99.90
14079;DHT22;7115;50.150;8.568;2022-10-24T11:28:43;22.10;99.90
14079;DHT22;7115;50.150;8.568;2022-10-24T11:31:15;21.90;99.90
14079;DHT22;7115;50.150;8.568;2022-10-24T11:33:45;21.70;99.90
14079;DHT22;7115;50.150;8.568;2022-10-24T11:36:20;21.70;99.90
14079;DHT22;7115;50.150;8.568;2022-10-24T11:38:53;21.70;99.90
14079;DHT22;7115;50.150;8.568;2022-10-24T11:41:33;21.70;99.90
14079;DHT22;7115;50.150;8.568;2022-10-24T11:44:09;21.60;99.90
14079;DHT22;7115;50.150;8.568;2022-10-24T11:46:41;21.60;99.90
14079;DHT22;7115;50.150;8.568;2022-10-24T11:49:18;21.60;99.90
14079;DHT22;7115;50.150;8.568;2022-10-24T11:51:52;21.60;99.90
14079;DHT22;7115;50.150;8.568;2022-10-24T11:54:24;21.60;99.90
14079;DHT22;7115;50.150;8.568;2022-10-24T11:56:56;21.60;99.90
14079;DHT22;7115;50.150;8.568;2022-10-24T11:59:24;21.60;99.90
14079;DHT22;7115;50.150;8.568;2022-10-24T12:02:21;21.70;99.90
14079;DHT22;7115;50.150;8.568;2022-10-24T12:05:05;21.70;99.90
14079;DHT22;7115;50.150;8.568;2022-10-24T12:08:03;21.60;99.90
14079;DHT22;7115;50.150;8.568;2022-10-24T12:10:45;21.50;99.90
14079;DHT22;7115;50.150;8.568;2022-10-24T12:13:40;21.50;99.90
14079;DHT22;7115;50.150;8.568;2022-10-24T12:16:15;21.50;99.90
14079;DHT22;7115;50.150;8.568;2022-10-24T12:18:48;21.50;99.90
14079;DHT22;7115;50.150;8.568;2022-10-24T12:21:19;21.50;99.90
14079;DHT22;7115;50.150;8.568;2022-10-24T12:23:54;21.50;99.90
14079;DHT22;7115;50.150;8.568;2022-10-24T12:26:25;21.50;99.90
14079;DHT22;7115;50.150;8.568;2022-10-24T12:28:54;21.50;99.90
14079;DHT22;7115;50.150;8.568;2022-10-24T12:31:26;21.40;99.90
14079;DHT22;7115;50.150;8.568;2022-10-24T12:34:29;21.30;99.90
14079;DHT22;7115;50.150;8.568;2022-10-24T12:37:03;21.30;99.90
14079;DHT22;7115;50.150;8.568;2022-10-24T12:39:33;21.40;99.90
14079;DHT22;7115;50.150;8.568;2022-10-24T12:42:01;21.60;99.90
14079;DHT22;7115;50.150;8.568;2022-10-24T12:44:49;21.80;99.90
14079;DHT22;7115;50.150;8.568;2022-10-24T12:47:37;21.90;99.90
14079;DHT22;7115;50.150;8.568;2022-10-24T12:53:28;22.10;99.90
14079;DHT22;7115;50.150;8.568;2022-10-24T12:56:18;22.30;99.90
14079;DHT22;7115;50.150;8.568;2022-10-24T12:58:59;22.30;99.70
14079;DHT22;7115;50.150;8.568;2022-10-24T13:01:28;22.30;99.50
14079;DHT22;7115;50.150;8.568;2022-10-24T13:04:28;22.40;99.40
14079;DHT22;7115;50.150;8.568;2022-10-24T13:07:27;22.50;98.90
14079;DHT22;7115;50.150;8.568;2022-10-24T13:10:02;22.50;98.70
14079;DHT22;7115;50.150;8.568;2022-10-24T13:12:50;22.50;98.70
14079;DHT22;7115;50.150;8.568;2022-10-24T13:15:28;22.50;98.60
14079;DHT22;7115;50.150;8.568;2022-10-24T13:18:06;22.40;98.70
14079;DHT22;7115;50.150;8.568;2022-10-24T13:20:39;22.30;98.60
14079;DHT22;7115;50.150;8.568;2022-10-24T13:23:14;22.30;98.60
14079;DHT22;7115;50.150;8.568;2022-10-24T13:25:42;22.20;98.30
14079;DHT22;7115;50.150;8.568;2022-10-24T13:28:32;22.00;98.00
14079;DHT22;7115;50.150;8.568;2022-10-24T13:34:29;21.70;97.70
14079;DHT22;7115;50.150;8.568;2022-10-24T13:37:04;21.60;97.90
14079;DHT22;7115;50.150;8.568;2022-10-24T13:39:35;21.50;98.00
14079;DHT22;7115;50.150;8.568;2022-10-24T13:42:18;21.40;97.90
14079;DHT22;7115;50.150;8.568;2022-10-24T13:44:50;21.40;97.80
14079;DHT22;7115;50.150;8.568;2022-10-24T13:47:20;21.30;98.00
14079;DHT22;7115;50.150;8.568;2022-10-24T13:49:55;21.20;98.10
14079;DHT22;7115;50.150;8.568;2022-10-24T13:52:25;21.10;98.20
14079;DHT22;7115;50.150;8.568;2022-10-24T13:54:59;21.00;98.40
14079;DHT22;7115;50.150;8.568;2022-10-24T13:57:29;21.00;98.50
14079;DHT22;7115;50.150;8.568;2022-10-24T14:00:03;20.90;98.60
14079;DHT22;7115;50.150;8.568;2022-10-24T14:02:32;20.90;98.70
14079;DHT22;7115;50.150;8.568;2022-10-24T14:05:04;20.90;98.80
14079;DHT22;7115;50.150;8.568;2022-10-24T14:07:32;20.90;98.90
14079;DHT22;7115;50.150;8.568;2022-10-24T14:10:07;20.90;98.90
14079;DHT22;7115;50.150;8.568;2022-10-24T14:12:38;20.90;99.00
14079;DHT22;7115;50.150;8.568;2022-10-24T14:15:15;20.80;99.00
14079;DHT22;7115;50.150;8.568;2022-10-24T14:17:53;20.80;99.10
14079;DHT22;7115;50.150;8.568;2022-10-24T14:20:21;20.80;99.10
14079;DHT22;7115;50.150;8.568;2022-10-24T14:22:49;20.70;99.20
14079;DHT22;7115;50.150;8.568;2022-10-24T14:25:24;20.70;99.20
14079;DHT22;7115;50.150;8.568;2022-10-24T14:27:52;20.70;99.30
14079;DHT22;7115;50.150;8.568;2022-10-24T14:30:22;20.70;99.40
14079;DHT22;7115;50.150;8.568;2022-10-24T14:33:04;20.60;99.40
14079;DHT22;7115;50.150;8.568;2022-10-24T14:35:32;20.60;99.50
14079;DHT22;7115;50.150;8.568;2022-10-24T14:37:59;20.60;99.60
14079;DHT22;7115;50.150;8.568;2022-10-24T14:40:29;20.60;99.60
14079;DHT22;7115;50.150;8.568;2022-10-24T14:42:57;20.50;99.70
14079;DHT22;7115;50.150;8.568;2022-10-24T14:45:28;20.60;99.80
14079;DHT22;7115;50.150;8.568;2022-10-24T14:47:57;20.60;99.90
14079;DHT22;7115;50.150;8.568;2022-10-24T14:50:36;20.60;99.90
14079;DHT22;7115;50.150;8.568;2022-10-24T14:53:03;20.60;99.90
14079;DHT22;7115;50.150;8.568;2022-10-24T14:55:31;20.70;99.90
14079;DHT22;7115;50.150;8.568;2022-10-24T14:57:58;20.80;99.90
14079;DHT22;7115;50.150;8.568;2022-10-24T15:00:27;20.80;99.90
14079;DHT22;7115;50.150;8.568;2022-10-24T15:03:00;20.80;99.90
14079;DHT22;7115;50.150;8.568;2022-10-24T15:05:31;20.80;99.90
14079;DHT22;7115;50.150;8.568;2022-10-24T15:08:00;20.90;99.90
14079;DHT22;7115;50.150;8.568;2022-10-24T15:11:03;20.80;99.90
14079;DHT22;7115;50.150;8.568;2022-10-24T15:13:41;20.80;99.90
14079;DHT22;7115;50.150;8.568;2022-10-24T15:16:20;20.80;99.90
14079;DHT22;7115;50.150;8.568;2022-10-24T15:18:51;20.70;99.90
14079;DHT22;7115;50.150;8.568;2022-10-24T15:21:22;20.60;99.90
14079;DHT22;7115;50.150;8.568;2022-10-24T15:23:51;20.60;99.90
14079;DHT22;7115;50.150;8.568;2022-10-24T15:26:23;20.50;99.90
14079;DHT22;7115;50.150;8.568;2022-10-24T15:28:54;20.40;99.90
14079;DHT22;7115;50.150;8.568;2022-10-24T15:31:24;20.40;99.90
14079;DHT22;7115;50.150;8.568;2022-10-24T15:33:53;20.30;99.90
14079;DHT22;7115;50.150;8.568;2022-10-24T15:36:22;20.20;99.90
14079;DHT22;7115;50.150;8.568;2022-10-24T15:38:54;20.20;99.90
14079;DHT22;7115;50.150;8.568;2022-10-24T15:41:21;20.10;99.90
14079;DHT22;7115;50.150;8.568;2022-10-24T15:43:48;20.00;99.90
14079;DHT22;7115;50.150;8.568;2022-10-24T15:46:15;20.00;99.90
14079;DHT22;7115;50.150;8.568;2022-10-24T15:48:43;19.90;99.90
14079;DHT22;7115;50.150;8.568;2022-10-24T15:51:13;19.90;99.90
14079;DHT22;7115;50.150;8.568;2022-10-24T15:53:41;19.80;99.90
14079;DHT22;7115;50.150;8.568;2022-10-24T15:56:08;19.70;99.90
14079;DHT22;7115;50.150;8.568;2022-10-24T15:58:36;19.70;99.90
14079;DHT22;7115;50.150;8.568;2022-10-24T16:01:05;19.50;99.90
14079;DHT22;7115;50.150;8.568;2022-10-24T16:03:34;19.60;99.90
14079;DHT22;7115;50.150;8.568;2022-10-24T16:06:03;19.50;99.90
14079;DHT22;7115;50.150;8.568;2022-10-24T16:08:30;19.50;99.90
14079;DHT22;7115;50.150;8.568;2022-10-24T16:10:57;19.50;99.90
14079;DHT22;7115;50.150;8.568;2022-10-24T16:13:24;19.40;99.90
14079;DHT22;7115;50.150;8.568;2022-10-24T16:15:51;19.40;99.90
14079;DHT22;7115;50.150;8.568;2022-10-24T16:18:18;19.30;99.90
14079;DHT22;7115;50.150;8.568;2022-10-24T16:20:45;19.30;99.90
14079;DHT22;7115;50.150;8.568;2022-10-24T16:23:14;19.30;99.90